Time;durP1;ratioP1;P1;durP2;ratioP2;P2;SDS_P1;SDS_P2;PMS_P1;PMS_P2;Temp;Humidity;BMP_temperature;BMP_pressure;BME280_temperature;BME280_humidity;BME280_pressure;Samples;Min_cycle;Max_cycle;Signal;HPM_P1;HPM_P2
2022/01/24 00:01:25;;;;;;;22.87;10.63;;;5.70;99.90;;;;;;5041329;28;20173;-78
2022/01/24 00:03:57;;;;;;;24.07;11.07;;;5.70;99.90;;;;;;5041338;28;20179;-78
2022/01/24 00:06:25;;;;;;;21.07;10.33;;;5.70;99.90;;;;;;5039227;28;20248;-78
2022/01/24 00:08:50;;;;;;;22.23;10.17;;;5.60;99.90;;;;;;5040713;28;20181;-78
2022/01/24 00:11:20;;;;;;;23.53;10.27;;;5.60;99.90;;;;;;5041201;28;20166;-78
2022/01/24 00:27:40;;;;;;;25.53;11.07;;;5.70;99.90;;;;;;5045272;28;20598;-79
2022/01/24 00:30:07;;;;;;;23.33;11.43;;;5.60;99.90;;;;;;5041806;28;20182;-78
2022/01/24 00:32:32;;;;;;;27.60;11.33;;;5.60;99.90;;;;;;5040701;28;20170;-79
2022/01/24 00:34:58;;;;;;;23.60;10.80;;;5.60;99.90;;;;;;5041125;28;20169;-79
2022/01/24 00:37:23;;;;;;;27.87;11.03;;;5.60;99.90;;;;;;5040500;28;20181;-79
2022/01/24 00:39:49;;;;;;;23.97;10.67;;;5.60;99.90;;;;;;5041886;28;20795;-79
2022/01/24 00:42:58;;;;;;;23.73;11.00;;;5.60;99.90;;;;;;5041273;28;20192;-79
2022/01/24 00:45:28;;;;;;;22.53;10.57;;;5.70;99.90;;;;;;5038813;28;20644;-79
2022/01/24 00:53:17;;;;;;;24.13;11.10;;;5.60;99.90;;;;;;5042174;28;20304;-79
2022/01/24 00:55:45;;;;;;;23.83;10.83;;;5.60;99.90;;;;;;5040462;28;20190;-78
2022/01/24 00:58:11;;;;;;;28.13;11.20;;;5.60;99.90;;;;;;5040415;28;20250;-79
2022/01/24 01:00:37;;;;;;;26.97;11.23;;;5.60;99.90;;;;;;5040480;28;20212;-79
2022/01/24 01:03:03;;;;;;;25.97;10.70;;;5.60;99.90;;;;;;5038295;28;20253;-78
2022/01/24 01:05:48;;;;;;;28.17;11.93;;;5.60;99.90;;;;;;5040983;28;20633;-78
2022/01/24 01:18:57;;;;;;;27.40;11.67;;;5.60;99.90;;;;;;5037749;28;20173;-78
2022/01/24 01:21:23;;;;;;;23.93;10.83;;;5.60;99.90;;;;;;5042315;28;20169;-78
2022/01/24 01:23:54;;;;;;;26.20;10.57;;;5.60;99.90;;;;;;5038164;28;20173;-78
2022/01/24 01:29:24;;;;;;;24.50;10.43;;;5.60;99.90;;;;;;5030508;28;20715;-78
2022/01/24 01:55:41;;;;;;;25.57;10.13;;;5.60;99.90;;;;;;5043474;28;20699;-78
2022/01/24 01:58:21;;;;;;;30.57;9.33;;;5.60;99.90;;;;;;5043014;28;20214;-78
2022/01/24 02:00:55;;;;;;;17.20;8.63;;;5.60;99.90;;;;;;5043613;28;20189;-78
2022/01/24 02:03:23;;;;;;;26.10;10.47;;;5.60;99.90;;;;;;5040862;28;20657;-78
2022/01/24 02:05:49;;;;;;;22.73;9.63;;;5.60;99.90;;;;;;5042266;28;20213;-78
2022/01/24 02:08:15;;;;;;;21.67;9.60;;;5.60;99.90;;;;;;5043898;28;20181;-78
2022/01/24 02:10:42;;;;;;;23.63;9.87;;;5.60;99.90;;;;;;5043546;28;20775;-78
2022/01/24 02:13:09;;;;;;;22.80;9.90;;;5.60;99.90;;;;;;5043502;28;20176;-77
2022/01/24 02:25:57;;;;;;;24.00;10.13;;;5.50;99.90;;;;;;5042866;28;20279;-78
2022/01/24 02:28:25;;;;;;;20.67;9.40;;;5.60;99.90;;;;;;5045784;28;20173;-78
2022/01/24 02:33:21;;;;;;;23.00;9.23;;;5.50;99.90;;;;;;5048995;28;20622;-78
2022/01/24 02:35:48;;;;;;;25.03;9.97;;;5.50;99.90;;;;;;5039838;28;20191;-78
2022/01/24 02:38:26;;;;;;;21.43;9.23;;;5.40;99.90;;;;;;5043746;28;20660;-78
2022/01/24 02:49:09;;;;;;;22.37;9.87;;;5.40;99.90;;;;;;5044446;28;20236;-78
2022/01/24 02:51:53;;;;;;;22.57;8.97;;;5.40;99.90;;;;;;5039521;28;20201;-78
2022/01/24 02:54:26;;;;;;;22.03;9.83;;;5.50;99.90;;;;;;5044249;28;20163;-78
2022/01/24 02:56:52;;;;;;;21.83;8.83;;;5.50;99.90;;;;;;5041381;28;20210;-78
2022/01/24 02:59:18;;;;;;;19.67;8.97;;;5.50;99.90;;;;;;5040413;28;20196;-78
2022/01/24 03:01:45;;;;;;;22.97;9.33;;;5.50;99.90;;;;;;5042311;28;20207;-78
2022/01/24 03:04:11;;;;;;;22.30;9.27;;;5.50;99.90;;;;;;5041240;28;20173;-78
2022/01/24 03:06:37;;;;;;;19.70;8.60;;;5.40;99.90;;;;;;5043400;28;20236;-78
2022/01/24 03:09:05;;;;;;;20.17;9.17;;;5.40;99.90;;;;;;5042141;28;20189;-78
2022/01/24 03:11:54;;;;;;;20.00;9.17;;;5.40;99.90;;;;;;5043961;28;20501;-78
2022/01/24 03:14:18;;;;;;;17.13;8.00;;;5.40;99.90;;;;;;5043534;28;20173;-78
2022/01/24 03:16:44;;;;;;;14.63;7.17;;;5.40;99.90;;;;;;5040886;28;20185;-78
2022/01/24 03:19:10;;;;;;;12.67;6.20;;;5.50;99.90;;;;;;5043765;28;20178;-78
2022/01/24 03:21:35;;;;;;;16.23;7.63;;;5.50;99.90;;;;;;5040147;28;20185;-78
2022/01/24 03:24:01;;;;;;;14.90;7.43;;;5.50;99.90;;;;;;5038924;28;20216;-78
2022/01/24 03:26:27;;;;;;;15.47;6.93;;;5.50;99.90;;;;;;5045526;28;20218;-78
2022/01/24 03:28:53;;;;;;;15.97;7.17;;;5.50;99.90;;;;;;5044313;28;20249;-78
2022/01/24 03:31:18;;;;;;;15.80;7.40;;;5.50;99.90;;;;;;5042435;28;20166;-78
2022/01/24 03:33:44;;;;;;;19.80;8.17;;;5.40;99.90;;;;;;5045051;28;20177;-79
2022/01/24 03:36:10;;;;;;;17.63;7.47;;;5.40;99.90;;;;;;5044799;28;20231;-78
2022/01/24 03:38:36;;;;;;;15.80;7.43;;;5.40;99.90;;;;;;5042611;28;20204;-78
2022/01/24 03:41:02;;;;;;;14.40;7.40;;;5.40;99.90;;;;;;5042239;28;20291;-79
2022/01/24 03:43:27;;;;;;;13.70;7.13;;;5.50;99.90;;;;;;5041305;28;20180;-78
2022/01/24 03:46:12;;;;;;;14.07;7.20;;;5.50;99.90;;;;;;5044490;28;20193;-78
2022/01/24 03:48:43;;;;;;;15.90;7.13;;;5.40;99.90;;;;;;5042278;28;20180;-78
2022/01/24 03:51:11;;;;;;;12.87;6.77;;;5.40;99.90;;;;;;5042156;28;20238;-78
2022/01/24 03:53:37;;;;;;;12.13;6.60;;;5.40;99.90;;;;;;5044387;28;20169;-79
2022/01/24 03:56:03;;;;;;;16.77;6.90;;;5.50;99.90;;;;;;5041610;28;20203;-78
2022/01/24 03:58:29;;;;;;;11.20;6.10;;;5.50;99.90;;;;;;5037599;28;20189;-78
2022/01/24 04:00:55;;;;;;;14.30;6.27;;;5.50;99.90;;;;;;5039437;28;20204;-78
2022/01/24 04:03:21;;;;;;;12.10;6.77;;;5.50;99.90;;;;;;5039284;28;20169;-78
2022/01/24 04:05:48;;;;;;;11.83;5.97;;;5.50;99.90;;;;;;5042922;28;20194;-78
2022/01/24 04:08:14;;;;;;;11.70;6.03;;;5.40;99.90;;;;;;5042792;28;20202;-78
2022/01/24 04:10:45;;;;;;;13.57;6.90;;;5.40;99.90;;;;;;5040370;28;20205;-78
2022/01/24 04:18:39;;;;;;;13.37;6.07;;;5.40;99.90;;;;;;5041671;28;20253;-78
2022/01/24 04:24:14;;;;;;;12.17;6.07;;;5.40;99.90;;;;;;5032314;28;20200;-78
2022/01/24 04:26:40;;;;;;;14.13;6.23;;;5.40;99.90;;;;;;5041016;28;20198;-79
2022/01/24 04:29:08;;;;;;;11.80;6.30;;;5.40;99.90;;;;;;5041876;28;20197;-78
2022/01/24 04:31:33;;;;;;;12.63;6.00;;;5.40;99.90;;;;;;5041942;28;20177;-79
2022/01/24 04:33:59;;;;;;;12.00;5.83;;;5.40;99.90;;;;;;5040195;28;20168;-78
2022/01/24 04:36:26;;;;;;;10.73;5.70;;;5.40;99.90;;;;;;5042905;28;20197;-78
2022/01/24 04:38:52;;;;;;;12.03;6.30;;;5.40;99.90;;;;;;5042065;28;20169;-78
2022/01/24 04:41:25;;;;;;;12.37;5.73;;;5.40;99.90;;;;;;5041878;28;20177;-78
2022/01/24 04:43:57;;;;;;;12.13;6.67;;;5.40;99.90;;;;;;5042036;28;20176;-79
2022/01/24 04:56:38;;;;;;;11.47;6.23;;;5.30;99.90;;;;;;5042859;28;20192;-78
2022/01/24 04:59:05;;;;;;;11.83;6.20;;;5.40;99.90;;;;;;5040662;28;20203;-77
2022/01/24 05:01:31;;;;;;;10.53;5.87;;;5.40;99.90;;;;;;5040507;28;20184;-78
2022/01/24 05:03:57;;;;;;;11.57;5.67;;;5.40;99.90;;;;;;5040123;28;20182;-77
2022/01/24 05:06:23;;;;;;;12.20;6.50;;;5.30;99.90;;;;;;5039185;28;20612;-77
2022/01/24 05:08:48;;;;;;;13.73;6.37;;;5.30;99.90;;;;;;5039411;28;20179;-78
2022/01/24 05:11:19;;;;;;;11.77;7.07;;;5.30;99.90;;;;;;5041365;28;20170;-77
2022/01/24 05:24:30;;;;;;;12.23;6.60;;;5.40;99.90;;;;;;5041785;28;20186;-77
2022/01/24 05:26:56;;;;;;;12.77;7.20;;;5.40;99.90;;;;;;5040308;28;20311;-77
2022/01/24 05:29:22;;;;;;;12.97;6.50;;;5.40;99.90;;;;;;5039414;28;20288;-77
2022/01/24 05:31:48;;;;;;;12.43;6.80;;;5.50;99.90;;;;;;5039065;28;20608;-77
2022/01/24 05:34:14;;;;;;;12.57;7.33;;;5.40;99.90;;;;;;5039494;28;20679;-77
2022/01/24 05:36:40;;;;;;;12.73;5.83;;;5.40;99.90;;;;;;5038643;28;20684;-77
2022/01/24 05:39:05;;;;;;;11.23;6.33;;;5.40;99.90;;;;;;5039140;28;20633;-77
2022/01/24 05:41:32;;;;;;;10.63;6.40;;;5.40;99.90;;;;;;5039039;28;20175;-77
2022/01/24 05:43:58;;;;;;;11.37;6.43;;;5.40;99.90;;;;;;5039263;28;20273;-77
2022/01/24 05:46:24;;;;;;;11.20;6.00;;;5.40;99.90;;;;;;5041194;28;20296;-77
2022/01/24 05:48:50;;;;;;;14.23;7.20;;;5.30;99.90;;;;;;5039002;28;20283;-77
2022/01/24 05:51:15;;;;;;;11.60;6.40;;;5.40;99.90;;;;;;5040637;28;20265;-77
2022/01/24 05:53:41;;;;;;;11.13;6.33;;;5.40;99.90;;;;;;5039157;28;20170;-77
2022/01/24 05:56:07;;;;;;;10.67;6.60;;;5.40;99.90;;;;;;5038599;28;20239;-77
2022/01/24 05:58:33;;;;;;;12.27;6.63;;;5.40;99.90;;;;;;5041009;28;20178;-77
2022/01/24 06:00:58;;;;;;;15.70;7.07;;;5.40;99.90;;;;;;5038933;28;20188;-77
2022/01/24 06:03:24;;;;;;;15.50;8.30;;;5.40;99.90;;;;;;5039215;28;20235;-77
2022/01/24 06:05:50;;;;;;;14.77;8.73;;;5.40;99.90;;;;;;5039212;28;20376;-77
2022/01/24 06:08:15;;;;;;;17.27;8.07;;;5.40;99.90;;;;;;5039452;28;20185;-77
2022/01/24 06:10:41;;;;;;;14.03;6.93;;;5.40;99.90;;;;;;5038490;28;20224;-77
2022/01/24 06:13:07;;;;;;;15.10;8.43;;;5.40;99.90;;;;;;5042367;28;20232;-77
2022/01/24 06:15:34;;;;;;;18.90;8.50;;;5.40;99.90;;;;;;5042186;28;20193;-77
2022/01/24 06:17:59;;;;;;;14.50;7.80;;;5.40;99.90;;;;;;5042935;28;20608;-77
2022/01/24 06:20:25;;;;;;;19.47;8.40;;;5.40;99.90;;;;;;5043245;28;20259;-77
2022/01/24 06:22:51;;;;;;;16.83;8.13;;;5.30;99.90;;;;;;5042657;28;20665;-77
2022/01/24 06:25:22;;;;;;;17.17;9.03;;;5.40;99.90;;;;;;5044068;28;20273;-77
2022/01/24 06:27:48;;;;;;;18.80;9.53;;;5.30;99.90;;;;;;5044630;28;20181;-77
2022/01/24 06:30:14;;;;;;;20.07;9.80;;;5.40;99.90;;;;;;5042257;28;20198;-77
2022/01/24 06:32:40;;;;;;;18.23;9.57;;;5.40;99.90;;;;;;5042302;28;20172;-77
2022/01/24 06:35:07;;;;;;;18.27;9.23;;;5.40;99.90;;;;;;5043707;28;20562;-77
2022/01/24 06:37:33;;;;;;;22.30;10.23;;;5.40;99.90;;;;;;5042923;28;20179;-77
2022/01/24 06:39:59;;;;;;;21.47;10.40;;;5.30;99.90;;;;;;5043026;28;20178;-77
2022/01/24 06:42:24;;;;;;;18.90;10.33;;;5.30;99.90;;;;;;5042506;28;20177;-77
2022/01/24 06:44:52;;;;;;;21.63;11.27;;;5.30;99.90;;;;;;5041985;28;20176;-77
2022/01/24 06:47:18;;;;;;;20.20;11.13;;;5.30;99.90;;;;;;5042208;28;20199;-77
2022/01/24 06:49:44;;;;;;;21.03;10.17;;;5.30;99.90;;;;;;5042041;28;20728;-77
2022/01/24 06:52:10;;;;;;;21.93;11.37;;;5.40;99.90;;;;;;5042598;28;20177;-77
2022/01/24 06:54:37;;;;;;;21.83;11.67;;;5.40;99.90;;;;;;5042558;28;20181;-77
2022/01/24 06:57:04;;;;;;;23.47;11.37;;;5.40;99.90;;;;;;5043776;28;20197;-77
2022/01/24 06:59:30;;;;;;;21.67;11.87;;;5.40;99.90;;;;;;5043278;28;20201;-77
2022/01/24 07:01:55;;;;;;;21.30;11.40;;;5.40;99.90;;;;;;5041413;28;20574;-77
2022/01/24 07:04:21;;;;;;;23.50;11.83;;;5.40;99.90;;;;;;5041680;28;20178;-77
2022/01/24 07:06:47;;;;;;;23.93;12.20;;;5.40;99.90;;;;;;5042047;28;20753;-77
2022/01/24 07:09:15;;;;;;;27.63;13.20;;;5.40;99.90;;;;;;5032067;28;20305;-74
2022/01/24 07:11:40;;;;;;;25.60;12.90;;;5.40;99.90;;;;;;5032406;28;20174;-75
2022/01/24 07:14:11;;;;;;;24.40;12.50;;;5.50;99.90;;;;;;5032751;28;20179;-75
2022/01/24 07:17:04;;;;;;;25.23;13.53;;;5.50;99.90;;;;;;5032658;28;20668;-75
2022/01/24 07:19:26;;;;;;;26.17;13.67;;;5.50;99.90;;;;;;5033646;28;20179;-75
2022/01/24 07:21:53;;;;;;;25.67;13.17;;;5.50;99.90;;;;;;5031921;28;20181;-75
2022/01/24 07:24:19;;;;;;;25.90;14.10;;;5.50;99.90;;;;;;5031599;28;20185;-74
2022/01/24 07:26:45;;;;;;;25.00;13.27;;;5.40;99.90;;;;;;5033502;28;20201;-74
2022/01/24 07:29:10;;;;;;;24.40;13.47;;;5.50;99.90;;;;;;5032069;28;20247;-75
2022/01/24 07:31:39;;;;;;;28.83;14.87;;;5.50;99.90;;;;;;5032031;28;20185;-75
2022/01/24 07:34:05;;;;;;;29.33;14.93;;;5.50;99.90;;;;;;5032262;28;20177;-75
2022/01/24 07:36:31;;;;;;;28.03;14.90;;;5.50;99.90;;;;;;5032123;28;20621;-77
2022/01/24 07:38:56;;;;;;;29.13;14.43;;;5.50;99.90;;;;;;5031981;28;20246;-77
2022/01/24 07:41:33;;;;;;;28.70;14.30;;;5.50;99.90;;;;;;5031778;28;20225;-77
2022/01/24 07:43:59;;;;;;;28.40;12.93;;;5.50;99.90;;;;;;5031843;28;20181;-77
2022/01/24 07:46:25;;;;;;;28.97;14.27;;;5.50;99.90;;;;;;5031552;28;20247;-77
2022/01/24 07:48:51;;;;;;;26.90;13.83;;;5.40;99.90;;;;;;5031531;28;20177;-77
2022/01/24 07:51:16;;;;;;;29.00;14.43;;;5.50;99.90;;;;;;5031584;28;20182;-77
2022/01/24 07:53:43;;;;;;;28.43;14.13;;;5.50;99.90;;;;;;5031695;28;20166;-77
2022/01/24 07:56:09;;;;;;;28.80;13.53;;;5.50;99.90;;;;;;5031733;28;20194;-77
2022/01/24 07:58:34;;;;;;;25.33;12.80;;;5.50;99.90;;;;;;5031211;28;20552;-77
2022/01/24 08:01:00;;;;;;;26.40;13.23;;;5.40;99.90;;;;;;5031592;28;20679;-77
2022/01/24 08:03:26;;;;;;;25.47;11.93;;;5.40;99.90;;;;;;5031437;28;20273;-77
2022/01/24 08:05:52;;;;;;;22.33;12.27;;;5.40;99.90;;;;;;5031081;28;20197;-77
2022/01/24 08:08:18;;;;;;;23.97;12.17;;;5.40;99.90;;;;;;5031681;28;20264;-77
2022/01/24 08:10:44;;;;;;;34.70;15.90;;;5.40;99.90;;;;;;5031451;28;20284;-77
2022/01/24 08:13:10;;;;;;;31.37;14.80;;;5.50;99.90;;;;;;5031308;28;20198;-77
2022/01/24 08:15:35;;;;;;;27.43;14.07;;;5.50;99.90;;;;;;5031419;28;20197;-77
2022/01/24 08:18:01;;;;;;;33.77;15.40;;;5.40;99.90;;;;;;5031522;28;20174;-77
2022/01/24 08:20:27;;;;;;;31.93;16.10;;;5.40;99.90;;;;;;5030852;28;20178;-77
2022/01/24 08:22:53;;;;;;;29.20;15.20;;;5.50;99.90;;;;;;5030536;28;20602;-77
2022/01/24 08:25:19;;;;;;;23.23;12.90;;;5.50;99.90;;;;;;5031259;28;20689;-77
2022/01/24 08:27:46;;;;;;;25.37;13.20;;;5.50;99.90;;;;;;5031305;28;20173;-78
2022/01/24 08:30:22;;;;;;;31.50;14.73;;;5.60;99.90;;;;;;5031531;28;20208;-77
2022/01/24 08:32:49;;;;;;;36.20;16.47;;;5.60;99.90;;;;;;5031033;28;20178;-77
2022/01/24 08:35:16;;;;;;;33.00;15.70;;;5.50;99.90;;;;;;5030874;28;20197;-77
2022/01/24 08:37:42;;;;;;;32.80;16.73;;;5.60;99.90;;;;;;5031131;28;20599;-77
2022/01/24 08:40:11;;;;;;;39.90;16.83;;;5.50;99.90;;;;;;5031007;28;20267;-77
2022/01/24 08:47:37;;;;;;;29.57;15.23;;;5.50;99.90;;;;;;5032193;28;20733;-77
2022/01/24 08:50:06;;;;;;;32.03;15.57;;;5.50;99.90;;;;;;5030998;28;20256;-77
2022/01/24 08:52:32;;;;;;;32.33;15.90;;;5.50;99.90;;;;;;5030432;28;20518;-76
2022/01/24 08:54:58;;;;;;;28.83;15.37;;;5.50;99.90;;;;;;5030526;28;20247;-76
2022/01/24 08:57:26;;;;;;;30.63;15.17;;;5.50;99.90;;;;;;5030460;28;20582;-75
2022/01/24 08:59:53;;;;;;;25.80;13.13;;;5.60;99.90;;;;;;5030736;28;20600;-75
2022/01/24 09:02:19;;;;;;;23.30;12.30;;;5.50;99.90;;;;;;5030723;28;20184;-76
2022/01/24 09:04:45;;;;;;;24.03;12.30;;;5.50;99.90;;;;;;5030519;28;20243;-75
2022/01/24 09:07:15;;;;;;;21.13;12.00;;;5.50;99.90;;;;;;5030336;28;20655;-75
2022/01/24 09:09:40;;;;;;;26.23;13.40;;;5.50;99.90;;;;;;5030747;28;20849;-76
2022/01/24 09:12:11;;;;;;;22.13;12.43;;;5.50;99.90;;;;;;5030154;28;20204;-75
2022/01/24 09:14:38;;;;;;;21.67;12.80;;;5.60;99.90;;;;;;5031575;28;20162;-77
2022/01/24 09:17:04;;;;;;;21.17;11.63;;;5.60;99.90;;;;;;5029946;28;20192;-76
2022/01/24 09:19:30;;;;;;;23.17;13.50;;;5.60;99.90;;;;;;5030107;28;20193;-77
2022/01/24 09:21:55;;;;;;;28.57;13.77;;;5.60;99.90;;;;;;5029823;28;20239;-77
2022/01/24 09:24:21;;;;;;;22.03;12.73;;;5.60;99.90;;;;;;5030034;28;20175;-77
2022/01/24 09:26:47;;;;;;;24.07;13.37;;;5.60;99.90;;;;;;5030044;28;20715;-77
2022/01/24 09:29:12;;;;;;;23.10;13.20;;;5.60;99.90;;;;;;5029770;28;20180;-77
2022/01/24 09:31:38;;;;;;;29.57;13.40;;;5.70;99.90;;;;;;5029986;28;20177;-77
2022/01/24 09:34:04;;;;;;;26.30;14.13;;;5.60;99.90;;;;;;5030080;28;20582;-78
2022/01/24 09:36:30;;;;;;;24.17;12.43;;;5.70;99.90;;;;;;5029822;28;20228;-78
2022/01/24 09:38:56;;;;;;;21.17;12.97;;;5.70;99.90;;;;;;5030131;28;20177;-78
2022/01/24 09:41:22;;;;;;;25.67;13.80;;;5.70;99.90;;;;;;5029933;28;20203;-78
2022/01/24 09:43:48;;;;;;;25.40;13.73;;;5.70;99.90;;;;;;5030157;28;20646;-78
2022/01/24 09:46:13;;;;;;;31.07;15.00;;;5.70;99.90;;;;;;5031137;28;20205;-78
2022/01/24 09:48:43;;;;;;;23.17;12.63;;;5.70;99.90;;;;;;5034008;28;20178;-78
2022/01/24 09:51:09;;;;;;;26.37;13.10;;;5.60;99.90;;;;;;5033662;28;20212;-78
2022/01/24 09:53:35;;;;;;;22.67;12.20;;;5.70;99.90;;;;;;5034016;28;20181;-78
2022/01/24 09:56:04;;;;;;;21.27;12.00;;;5.70;99.90;;;;;;5033684;28;20197;-77
2022/01/24 09:58:31;;;;;;;20.40;10.93;;;5.70;99.90;;;;;;5032330;28;20550;-77
2022/01/24 10:00:58;;;;;;;18.17;9.93;;;5.80;99.90;;;;;;5033041;28;20540;-78
2022/01/24 10:03:25;;;;;;;17.27;10.40;;;5.70;99.90;;;;;;5032829;28;20179;-78
2022/01/24 10:05:53;;;;;;;19.23;10.87;;;5.80;99.90;;;;;;5031236;28;20198;-77
2022/01/24 10:08:20;;;;;;;18.63;9.60;;;5.80;99.90;;;;;;5032335;28;20320;-77
2022/01/24 10:10:55;;;;;;;18.07;8.90;;;5.70;99.90;;;;;;5032464;28;20379;-77
2022/01/24 10:19:17;;;;;;;15.77;9.50;;;5.70;99.90;;;;;;5033806;28;20549;-78
2022/01/24 10:21:56;;;;;;;13.47;8.77;;;5.70;99.90;;;;;;5032467;28;20173;-77
2022/01/24 10:24:34;;;;;;;14.30;8.73;;;5.80;99.90;;;;;;5032263;28;20171;-77
2022/01/24 10:27:10;;;;;;;15.00;8.73;;;5.70;99.90;;;;;;5032445;28;20193;-77
2022/01/24 10:29:44;;;;;;;16.17;9.03;;;5.70;99.90;;;;;;5032615;28;20196;-77
2022/01/24 10:32:30;;;;;;;16.23;9.47;;;5.70;99.90;;;;;;5032111;28;20180;-77
2022/01/24 10:35:04;;;;;;;12.90;8.10;;;5.80;99.90;;;;;;5032093;28;20176;-77
2022/01/24 10:37:29;;;;;;;13.70;8.30;;;5.60;99.90;;;;;;5032197;28;20274;-77
2022/01/24 10:40:09;;;;;;;14.93;8.67;;;5.60;99.90;;;;;;5031919;28;20278;-77
2022/01/24 10:42:52;;;;;;;12.97;8.17;;;5.60;99.90;;;;;;5032337;28;20205;-79
2022/01/24 10:45:22;;;;;;;16.60;8.60;;;5.70;99.90;;;;;;5035763;28;20194;-80
2022/01/24 10:47:51;;;;;;;18.83;10.13;;;5.80;99.90;;;;;;5031958;28;20734;-77
2022/01/24 10:50:31;;;;;;;15.23;9.27;;;5.70;99.90;;;;;;5031906;28;20263;-77
2022/01/24 10:53:10;;;;;;;19.13;10.80;;;5.90;99.90;;;;;;5031702;28;20267;-77
2022/01/24 10:55:36;;;;;;;17.97;10.40;;;5.80;99.90;;;;;;5031667;28;20201;-77
2022/01/24 10:58:04;;;;;;;15.70;8.90;;;5.80;99.90;;;;;;5031853;28;20173;-77
2022/01/24 11:00:31;;;;;;;14.50;9.23;;;5.70;99.90;;;;;;5031839;28;20190;-77
2022/01/24 11:03:03;;;;;;;13.90;8.67;;;5.80;99.90;;;;;;5032895;28;20654;-77
2022/01/24 11:05:37;;;;;;;16.00;9.73;;;5.90;99.90;;;;;;5031614;28;20564;-78
2022/01/24 11:08:06;;;;;;;18.70;9.47;;;6.00;99.90;;;;;;5031240;28;20650;-77
2022/01/24 11:10:50;;;;;;;17.17;10.03;;;5.90;99.90;;;;;;5031976;28;20255;-77
2022/01/24 11:13:21;;;;;;;19.47;10.30;;;5.80;99.90;;;;;;5031855;28;20184;-76
2022/01/24 11:15:56;;;;;;;17.70;10.30;;;5.90;99.90;;;;;;5032014;28;20198;-77
2022/01/24 11:18:23;;;;;;;15.30;8.97;;;5.90;99.90;;;;;;5032719;28;20179;-76
2022/01/24 11:21:01;;;;;;;16.17;8.80;;;5.90;99.90;;;;;;5032585;28;20177;-77
2022/01/24 11:23:28;;;;;;;14.10;8.57;;;5.90;99.90;;;;;;5031601;28;20188;-76
2022/01/24 11:25:59;;;;;;;16.60;9.40;;;6.00;99.90;;;;;;5031200;28;20723;-76
2022/01/24 11:28:25;;;;;;;18.67;9.20;;;6.00;99.90;;;;;;5031213;28;20212;-76
2022/01/24 11:31:03;;;;;;;15.30;9.57;;;6.10;99.90;;;;;;5030545;28;20233;-79
2022/01/24 11:33:38;;;;;;;13.23;8.53;;;6.00;99.90;;;;;;5030690;28;20193;-78
2022/01/24 11:36:07;;;;;;;17.73;10.03;;;6.00;99.90;;;;;;5030760;28;20282;-79
2022/01/24 11:38:35;;;;;;;16.93;10.00;;;6.00;99.90;;;;;;5030669;28;20176;-78
2022/01/24 11:41:21;;;;;;;15.87;9.30;;;6.10;99.90;;;;;;5030731;28;20173;-78
2022/01/24 11:43:51;;;;;;;15.73;9.10;;;6.00;99.90;;;;;;5030950;28;20182;-78
2022/01/24 11:46:37;;;;;;;14.33;9.47;;;6.00;99.90;;;;;;5031002;28;20600;-78
2022/01/24 11:49:12;;;;;;;15.07;9.10;;;5.90;99.90;;;;;;5030345;28;20178;-78
2022/01/24 11:51:39;;;;;;;11.97;7.60;;;5.90;99.90;;;;;;5030631;28;20178;-78
2022/01/24 11:54:42;;;;;;;13.53;8.17;;;5.80;99.90;;;;;;5030608;28;20177;-77
2022/01/24 11:57:36;;;;;;;10.83;7.23;;;5.90;99.90;;;;;;5031612;28;20177;-77
2022/01/24 12:00:05;;;;;;;11.17;7.03;;;5.80;99.90;;;;;;5031431;28;20201;-77
2022/01/24 12:02:43;;;;;;;16.07;7.83;;;5.80;99.90;;;;;;5030253;28;20182;-77
2022/01/24 12:05:21;;;;;;;15.83;8.70;;;5.80;99.90;;;;;;5034894;28;20206;-77
2022/01/24 12:07:49;;;;;;;14.13;7.37;;;5.70;99.90;;;;;;5050950;28;20434;-76
2022/01/24 12:10:25;;;;;;;14.73;8.10;;;5.80;99.90;;;;;;5050396;28;20807;-75
2022/01/24 12:12:54;;;;;;;14.43;8.23;;;5.90;99.90;;;;;;5050604;28;20161;-76
2022/01/24 12:15:43;;;;;;;15.37;8.00;;;5.80;99.90;;;;;;5050559;28;20198;-76
2022/01/24 12:18:12;;;;;;;13.90;7.93;;;5.90;99.90;;;;;;5032208;28;20181;-76
2022/01/24 12:20:40;;;;;;;16.40;8.23;;;5.80;99.90;;;;;;5051071;28;20173;-76
2022/01/24 12:23:24;;;;;;;13.73;7.90;;;5.80;99.90;;;;;;5050235;28;20210;-76
2022/01/24 12:26:02;;;;;;;11.77;7.43;;;5.90;99.90;;;;;;5050964;28;20200;-76
2022/01/24 12:28:32;;;;;;;14.53;8.10;;;5.80;99.90;;;;;;5050894;28;20181;-76
2022/01/24 12:31:08;;;;;;;18.43;7.87;;;5.80;99.90;;;;;;5050743;28;20247;-77
2022/01/24 12:33:52;;;;;;;14.70;7.97;;;5.80;99.90;;;;;;5050692;28;20633;-77
2022/01/24 12:36:48;;;;;;;20.30;9.00;;;5.90;99.90;;;;;;5052071;28;20237;-77
2022/01/24 12:39:19;;;;;;;12.50;7.57;;;6.00;99.90;;;;;;5050662;28;20659;-77
2022/01/24 12:41:49;;;;;;;19.23;8.10;;;5.90;99.90;;;;;;5050178;28;20181;-77
2022/01/24 12:47:06;;;;;;;15.13;8.47;;;5.80;99.90;;;;;;5051394;28;20569;-77
2022/01/24 12:49:33;;;;;;;14.10;7.90;;;5.90;99.90;;;;;;5050169;28;20680;-77
2022/01/24 12:52:08;;;;;;;12.40;7.67;;;5.80;99.90;;;;;;5049070;28;20630;-76
2022/01/24 12:54:43;;;;;;;12.63;7.20;;;5.80;99.90;;;;;;5050443;28;20263;-77
2022/01/24 12:57:14;;;;;;;13.70;7.67;;;5.70;99.90;;;;;;5049937;28;20169;-76
2022/01/24 12:59:54;;;;;;;12.77;7.57;;;5.70;99.90;;;;;;5048710;28;20279;-77
2022/01/24 13:02:26;;;;;;;13.40;7.63;;;5.70;99.90;;;;;;5041470;28;20191;-77
2022/01/24 13:04:58;;;;;;;14.37;7.70;;;5.70;99.90;;;;;;5048996;28;20184;-76
2022/01/24 13:07:23;;;;;;;14.90;7.13;;;5.60;99.90;;;;;;5048986;28;20165;-76
2022/01/24 13:09:49;;;;;;;11.67;6.90;;;5.70;99.90;;;;;;5049263;28;20192;-76
2022/01/24 13:12:15;;;;;;;13.57;7.23;;;5.70;99.90;;;;;;5048938;28;20767;-76
2022/01/24 13:25:29;;;;;;;13.67;7.33;;;5.70;99.90;;;;;;5055220;28;20269;-77
2022/01/24 13:28:01;;;;;;;11.97;6.87;;;5.80;99.90;;;;;;5054211;28;20630;-77
2022/01/24 13:30:42;;;;;;;14.40;7.67;;;5.80;99.90;;;;;;5055832;28;20274;-77
2022/01/24 13:33:11;;;;;;;12.20;6.57;;;5.80;99.90;;;;;;5054518;28;20161;-77
2022/01/24 13:35:41;;;;;;;11.70;6.33;;;5.70;99.90;;;;;;5053796;28;20226;-77
2022/01/24 13:38:17;;;;;;;15.33;8.40;;;5.80;99.90;;;;;;5054040;28;20184;-77
2022/01/24 13:41:02;;;;;;;15.37;8.53;;;5.70;99.90;;;;;;5055495;28;20173;-77
2022/01/24 13:43:46;;;;;;;19.30;8.97;;;5.70;99.90;;;;;;5049994;28;20279;-77
2022/01/24 13:46:17;;;;;;;14.47;8.17;;;5.70;99.90;;;;;;5040236;28;20204;-77
2022/01/24 13:48:47;;;;;;;15.53;8.63;;;5.70;99.90;;;;;;5051075;28;20191;-77
2022/01/24 13:51:16;;;;;;;16.73;8.17;;;5.80;99.90;;;;;;5052915;28;20212;-77
2022/01/24 13:53:56;;;;;;;16.17;8.67;;;5.60;99.90;;;;;;5052955;28;20599;-77
2022/01/24 13:56:32;;;;;;;15.73;7.73;;;5.70;99.90;;;;;;5052446;28;20307;-77
2022/01/24 13:59:13;;;;;;;14.87;7.97;;;5.80;99.90;;;;;;5052881;28;20989;-77
2022/01/24 14:01:59;;;;;;;16.43;8.00;;;5.90;99.90;;;;;;5052710;28;20177;-77
2022/01/24 14:04:26;;;;;;;15.97;8.40;;;5.90;99.90;;;;;;5033053;28;20283;-79
2022/01/24 14:06:57;;;;;;;15.97;8.20;;;5.70;99.90;;;;;;5053642;28;20198;-77
2022/01/24 14:09:41;;;;;;;14.03;8.37;;;5.60;99.90;;;;;;5052837;28;20179;-77
2022/01/24 14:12:10;;;;;;;15.30;8.10;;;5.70;99.90;;;;;;5052397;28;20247;-78
2022/01/24 14:14:46;;;;;;;17.87;9.67;;;5.70;99.90;;;;;;5049320;28;20192;-77
2022/01/24 14:20:03;;;;;;;15.57;8.77;;;5.70;99.90;;;;;;5054019;28;20658;-77
2022/01/24 14:22:37;;;;;;;16.43;9.60;;;5.70;99.90;;;;;;5051886;28;20616;-77
2022/01/24 14:25:04;;;;;;;18.07;10.03;;;5.70;99.90;;;;;;5052547;28;20234;-77
2022/01/24 14:27:49;;;;;;;19.20;9.93;;;5.60;99.90;;;;;;5052157;28;20184;-77
2022/01/24 14:30:21;;;;;;;19.13;10.07;;;5.70;99.90;;;;;;5052663;28;20315;-77
2022/01/24 14:33:06;;;;;;;19.80;10.27;;;5.60;99.90;;;;;;5051742;28;20175;-77
2022/01/24 14:35:37;;;;;;;22.50;10.33;;;5.50;99.90;;;;;;5052557;28;20217;-77
2022/01/24 14:38:04;;;;;;;20.07;9.97;;;5.50;99.90;;;;;;5052490;28;20224;-77
2022/01/24 14:40:31;;;;;;;16.83;8.53;;;5.50;99.90;;;;;;5039155;28;20248;-77
2022/01/24 14:44:53;;;;;;;17.30;8.10;;;5.50;99.90;;;;;;5032587;28;20578;-77
2022/01/24 14:45:43;;;;;;;13.50;7.83;;;5.40;99.90;;;;;;5033536;28;20196;-77
2022/01/24 14:48:09;;;;;;;20.77;9.30;;;5.50;99.90;;;;;;5032215;28;20230;-77
2022/01/24 14:50:34;;;;;;;16.00;9.00;;;5.50;99.90;;;;;;5039768;28;20196;-77
2022/01/24 14:53:04;;;;;;;20.37;9.60;;;5.50;99.90;;;;;;5068011;28;20202;-77
2022/01/24 14:55:30;;;;;;;18.00;9.50;;;5.50;99.90;;;;;;5068230;28;20292;-77
2022/01/24 14:57:56;;;;;;;21.60;10.13;;;5.50;99.90;;;;;;5048199;28;20227;-77
2022/01/24 15:00:23;;;;;;;16.27;8.30;;;5.50;99.90;;;;;;5048585;28;20227;-78
2022/01/24 15:02:49;;;;;;;17.33;9.70;;;5.50;99.90;;;;;;5047918;28;20176;-77
2022/01/24 15:05:16;;;;;;;19.60;9.40;;;5.50;99.90;;;;;;5032747;28;20186;-78
2022/01/24 15:07:43;;;;;;;20.70;10.00;;;5.50;99.90;;;;;;5051019;28;20196;-78
2022/01/24 15:10:09;;;;;;;23.00;10.50;;;5.50;99.90;;;;;;5051385;28;20247;-77